KPTB/PTB METAR and TAF weather

Enter ICAO airport designator
Station Type Date Time Source
KPTB METAR 2019/12/08 17:15 UTC NOAA

KPTB 081715Z AUTO 08004KT 10SM CLR 09/00 A3046 RMK AO2 T00870000


Station Type Date Time Source
KPTB Decoded METAR 2019/12/08 17:15 UTC NOAA

Petersburg, Dinwiddie County Airport, VA, United States (KPTB) 37-11N 077-31W
Dec 08, 2019 - 12:15 PM EST / 2019.12.08 1715 UTC
Wind: from the E (080 degrees) at 5 MPH (4 KT):0
Visibility: 10 mile(s):0
Sky conditions: clear
Temperature: 47.7 F (8.7 C)
Dew Point: 32.0 F (0.0 C)
Relative Humidity: 54%
Pressure (altimeter): 30.46 in. Hg (1031 hPa)
ob: KPTB 081715Z AUTO 08004KT 10SM CLR 09/00 A3046 RMK AO2 T00870000
cycle: 17

Station Type Date Time Source
KPTB TAF UTC NOAA

Error!

Example: see airport list